Time;durP1;ratioP1;P1;durP2;ratioP2;P2;SDS_P1;SDS_P2;PMS_P1;PMS_P2;Temp;Humidity;BMP_temperature;BMP_pressure;BME280_temperature;BME280_humidity;BME280_pressure;Samples;Min_cycle;Max_cycle;Signal;HPM_P1;HPM_P2
2022/07/18 00:02:05;;;;;;;1.17;1.17;;;;;;;;;;5076077;28;20201;-82
2022/07/18 00:04:34;;;;;;;0.83;0.83;;;;;;;;;;5091855;28;20211;-82
2022/07/18 00:07:02;;;;;;;0.77;0.77;;;;;;;;;;5075138;28;20255;-82
2022/07/18 00:09:30;;;;;;;0.63;0.63;;;;;;;;;;5067348;28;20212;-82
2022/07/18 00:12:03;;;;;;;0.97;0.97;;;;;;;;;;5089081;28;20193;-82
2022/07/18 00:14:33;;;;;;;0.90;0.90;;;;;;;;;;5075923;28;20201;-81
2022/07/18 00:17:02;;;;;;;1.13;1.13;;;;;;;;;;5075711;28;20226;-82
2022/07/18 00:19:30;;;;;;;0.50;0.50;;;;;;;;;;5078325;28;20201;-81
2022/07/18 00:21:59;;;;;;;0.67;0.67;;;;;;;;;;5093311;28;20197;-81
2022/07/18 00:24:27;;;;;;;1.07;0.97;;;;;;;;;;5092493;28;20206;-82
2022/07/18 00:26:55;;;;;;;0.30;0.30;;;;;;;;;;5075636;28;20255;-82
2022/07/18 00:29:24;;;;;;;0.30;0.30;;;;;;;;;;5097608;28;20200;-82
2022/07/18 00:31:54;;;;;;;0.80;0.80;;;;;;;;;;5079518;28;20195;-81
2022/07/18 00:34:22;;;;;;;1.83;1.73;;;;;;;;;;5087377;28;20231;-81
2022/07/18 00:36:50;;;;;;;0.50;0.50;;;;;;;;;;5094268;28;20200;-81
2022/07/18 00:39:19;;;;;;;0.30;0.30;;;;;;;;;;5097451;28;20251;-82
2022/07/18 00:41:48;;;;;;;0.30;0.30;;;;;;;;;;5079633;28;20219;-82
2022/07/18 00:44:20;;;;;;;2.00;1.07;;;;;;;;;;5096648;28;20259;-82
2022/07/18 00:46:51;;;;;;;0.43;0.43;;;;;;;;;;5083427;28;20235;-82
2022/07/18 00:49:21;;;;;;;0.30;0.30;;;;;;;;;;5079397;28;20266;-82
2022/07/18 00:51:49;;;;;;;1.33;1.33;;;;;;;;;;5090644;28;20258;-82
2022/07/18 00:54:18;;;;;;;0.30;0.30;;;;;;;;;;5090356;28;20210;-82
2022/07/18 00:56:47;;;;;;;0.30;0.30;;;;;;;;;;5089376;28;20195;-82
2022/07/18 00:59:15;;;;;;;0.30;0.30;;;;;;;;;;5095939;28;20198;-82
2022/07/18 01:01:43;;;;;;;1.07;1.07;;;;;;;;;;5095805;28;20259;-82
2022/07/18 01:04:13;;;;;;;0.30;0.30;;;;;;;;;;5097079;28;20192;-82
2022/07/18 01:06:43;;;;;;;0.83;0.83;;;;;;;;;;5069581;28;20193;-82
2022/07/18 01:09:11;;;;;;;0.30;0.30;;;;;;;;;;5091969;28;20212;-82
2022/07/18 01:11:40;;;;;;;0.30;0.30;;;;;;;;;;5096076;28;20185;-82
2022/07/18 01:14:08;;;;;;;2.03;1.93;;;;;;;;;;5096870;28;20196;-82
2022/07/18 01:16:37;;;;;;;0.30;0.30;;;;;;;;;;5079019;28;20204;-82
2022/07/18 01:19:06;;;;;;;0.37;0.37;;;;;;;;;;5075250;28;20212;-82
2022/07/18 01:21:36;;;;;;;0.40;0.40;;;;;;;;;;5078604;28;20205;-81
2022/07/18 01:24:05;;;;;;;1.40;1.40;;;;;;;;;;5078932;28;20207;-82
2022/07/18 01:26:34;;;;;;;0.30;0.30;;;;;;;;;;5074728;28;20209;-82
2022/07/18 01:29:02;;;;;;;0.30;0.30;;;;;;;;;;5076218;28;20201;-82
2022/07/18 01:31:33;;;;;;;0.50;0.50;;;;;;;;;;5079130;28;20212;-82
2022/07/18 01:34:02;;;;;;;0.30;0.30;;;;;;;;;;5086343;28;20206;-81
2022/07/18 01:36:30;;;;;;;0.83;0.83;;;;;;;;;;5078400;28;20208;-81
2022/07/18 01:39:00;;;;;;;1.53;1.53;;;;;;;;;;5095459;28;20188;-82
2022/07/18 01:41:29;;;;;;;2.10;2.00;;;;;;;;;;5094888;28;20221;-81
2022/07/18 01:43:57;;;;;;;4.37;3.13;;;;;;;;;;5088773;28;20214;-81
2022/07/18 01:46:26;;;;;;;3.37;2.57;;;;;;;;;;5075812;28;20233;-81
2022/07/18 01:48:54;;;;;;;0.37;0.37;;;;;;;;;;5064262;28;20287;-81
2022/07/18 01:51:22;;;;;;;0.60;0.60;;;;;;;;;;5078182;28;20197;-81
2022/07/18 01:53:56;;;;;;;0.60;0.60;;;;;;;;;;5075107;28;20197;-82
2022/07/18 01:56:25;;;;;;;0.30;0.30;;;;;;;;;;5078257;28;20217;-82
2022/07/18 01:58:54;;;;;;;0.30;0.30;;;;;;;;;;5077934;28;20207;-82
2022/07/18 02:01:22;;;;;;;1.73;1.63;;;;;;;;;;5077692;28;20214;-82
2022/07/18 02:03:51;;;;;;;2.27;1.43;;;;;;;;;;5075006;28;20195;-82
2022/07/18 02:06:19;;;;;;;1.23;1.00;;;;;;;;;;5075908;28;20200;-82
2022/07/18 02:08:47;;;;;;;0.40;0.40;;;;;;;;;;5059518;28;20233;-81
2022/07/18 02:11:16;;;;;;;1.77;1.60;;;;;;;;;;5090942;28;20200;-82
2022/07/18 02:13:46;;;;;;;2.20;1.30;;;;;;;;;;5084899;28;20217;-82
2022/07/18 02:16:14;;;;;;;2.20;2.10;;;;;;;;;;5077733;28;20214;-82
2022/07/18 02:18:43;;;;;;;3.10;3.00;;;;;;;;;;5077844;28;20205;-82
2022/07/18 02:21:13;;;;;;;1.10;1.10;;;;;;;;;;5093334;28;20214;-82
2022/07/18 02:23:42;;;;;;;0.83;0.83;;;;;;;;;;5074369;28;20202;-82
2022/07/18 02:26:10;;;;;;;2.07;1.97;;;;;;;;;;5077242;28;20270;-82
2022/07/18 02:28:39;;;;;;;0.93;0.93;;;;;;;;;;5077722;28;20208;-82
2022/07/18 02:31:09;;;;;;;0.87;0.87;;;;;;;;;;5095185;28;20197;-82
2022/07/18 02:33:38;;;;;;;0.97;0.97;;;;;;;;;;5094167;28;20200;-82
2022/07/18 02:36:06;;;;;;;0.37;0.37;;;;;;;;;;5077532;28;20235;-82
2022/07/18 02:38:35;;;;;;;0.70;0.70;;;;;;;;;;5090738;28;20196;-82
2022/07/18 02:41:03;;;;;;;0.30;0.30;;;;;;;;;;5086554;28;20527;-82
2022/07/18 02:43:31;;;;;;;0.30;0.30;;;;;;;;;;5076922;28;20198;-81
2022/07/18 02:46:00;;;;;;;0.30;0.30;;;;;;;;;;5086826;28;20195;-82
2022/07/18 02:48:30;;;;;;;0.43;0.43;;;;;;;;;;5076807;28;20197;-81
2022/07/18 02:50:58;;;;;;;1.17;1.17;;;;;;;;;;5076009;28;20240;-82
2022/07/18 02:53:27;;;;;;;6.70;1.70;;;;;;;;;;5076742;28;20197;-82
2022/07/18 02:55:55;;;;;;;0.30;0.30;;;;;;;;;;5076739;28;20264;-82
2022/07/18 02:58:23;;;;;;;1.33;1.23;;;;;;;;;;5094922;28;20213;-81
2022/07/18 03:00:52;;;;;;;0.53;0.53;;;;;;;;;;5094625;28;20217;-81
2022/07/18 03:03:20;;;;;;;0.33;0.33;;;;;;;;;;5077021;28;20292;-82
2022/07/18 03:05:50;;;;;;;0.40;0.40;;;;;;;;;;5076749;28;20273;-81
2022/07/18 03:08:18;;;;;;;0.63;0.63;;;;;;;;;;5077013;28;20215;-81
2022/07/18 03:10:47;;;;;;;1.93;1.90;;;;;;;;;;5093968;28;20196;-81
2022/07/18 03:13:15;;;;;;;0.50;0.50;;;;;;;;;;5076484;28;20207;-82
2022/07/18 03:15:44;;;;;;;0.40;0.40;;;;;;;;;;5076404;28;20202;-82
2022/07/18 03:18:12;;;;;;;0.63;0.63;;;;;;;;;;5076803;28;20238;-81
2022/07/18 03:20:40;;;;;;;1.53;1.40;;;;;;;;;;5094411;28;20228;-81
2022/07/18 03:23:10;;;;;;;10.50;3.93;;;;;;;;;;5090223;28;20216;-82
2022/07/18 03:25:38;;;;;;;6.93;4.30;;;;;;;;;;5067064;28;20203;-81
2022/07/18 03:28:07;;;;;;;6.60;3.17;;;;;;;;;;5094393;28;20193;-81
2022/07/18 03:30:35;;;;;;;10.70;4.07;;;;;;;;;;5076503;28;20194;-81
2022/07/18 03:33:04;;;;;;;8.53;5.50;;;;;;;;;;5076138;28;20194;-81
2022/07/18 03:35:34;;;;;;;6.33;4.53;;;;;;;;;;5072956;28;20221;-81
2022/07/18 03:38:02;;;;;;;6.10;2.63;;;;;;;;;;5088503;28;20251;-82
2022/07/18 03:40:32;;;;;;;5.60;3.67;;;;;;;;;;5075905;28;20227;-80
2022/07/18 03:43:01;;;;;;;2.20;1.80;;;;;;;;;;5094075;28;20227;-82
2022/07/18 03:45:29;;;;;;;5.07;3.00;;;;;;;;;;5093700;28;20209;-81
2022/07/18 03:47:57;;;;;;;3.67;3.23;;;;;;;;;;5080358;28;20244;-82
2022/07/18 03:50:27;;;;;;;4.67;3.93;;;;;;;;;;5087877;28;20206;-81
2022/07/18 03:52:55;;;;;;;6.73;3.27;;;;;;;;;;5085104;28;20205;-82
2022/07/18 03:55:24;;;;;;;2.20;2.10;;;;;;;;;;5075940;28;20194;-82
2022/07/18 03:57:54;;;;;;;3.80;2.63;;;;;;;;;;5072851;28;20260;-82
2022/07/18 04:00:22;;;;;;;1.67;1.40;;;;;;;;;;5073504;28;20194;-82
2022/07/18 04:02:50;;;;;;;1.33;1.27;;;;;;;;;;5075000;28;20262;-81
2022/07/18 04:05:19;;;;;;;5.03;4.40;;;;;;;;;;5061486;28;20202;-81
2022/07/18 04:07:47;;;;;;;5.47;3.13;;;;;;;;;;5072459;28;20289;-82
2022/07/18 04:10:16;;;;;;;1.13;1.13;;;;;;;;;;5073190;28;20210;-81
2022/07/18 04:12:48;;;;;;;0.80;0.80;;;;;;;;;;5090123;28;20207;-81
2022/07/18 04:15:18;;;;;;;4.70;3.70;;;;;;;;;;5075650;28;20193;-82
2022/07/18 04:17:46;;;;;;;1.03;0.93;;;;;;;;;;5075682;28;20259;-82
2022/07/18 04:20:16;;;;;;;0.50;0.50;;;;;;;;;;5076022;28;20197;-82
2022/07/18 04:22:48;;;;;;;0.30;0.30;;;;;;;;;;5079193;28;20228;-82
2022/07/18 04:25:18;;;;;;;0.30;0.30;;;;;;;;;;5093669;28;20198;-82
2022/07/18 04:27:47;;;;;;;0.30;0.30;;;;;;;;;;5075784;28;20204;-82
2022/07/18 04:30:18;;;;;;;0.30;0.30;;;;;;;;;;5075664;28;20203;-82
2022/07/18 04:32:47;;;;;;;0.30;0.30;;;;;;;;;;5076111;28;20206;-82
2022/07/18 04:35:21;;;;;;;0.30;0.30;;;;;;;;;;5075758;28;20249;-82
2022/07/18 04:37:51;;;;;;;0.97;0.97;;;;;;;;;;5086431;28;20208;-82
2022/07/18 04:40:20;;;;;;;0.37;0.37;;;;;;;;;;5062179;28;20207;-82
2022/07/18 04:42:48;;;;;;;0.87;0.87;;;;;;;;;;5072055;28;20222;-82
2022/07/18 04:45:21;;;;;;;0.30;0.30;;;;;;;;;;5075530;28;20198;-82
2022/07/18 04:47:54;;;;;;;0.40;0.40;;;;;;;;;;5075447;28;20232;-81
2022/07/18 04:50:24;;;;;;;1.30;1.30;;;;;;;;;;5075296;28;20200;-82
2022/07/18 04:52:53;;;;;;;0.30;0.30;;;;;;;;;;5093237;28;20201;-81
2022/07/18 04:55:25;;;;;;;0.70;0.70;;;;;;;;;;5075304;28;20284;-82
2022/07/18 04:57:54;;;;;;;1.60;1.50;;;;;;;;;;5093389;28;20208;-82
2022/07/18 05:00:24;;;;;;;0.37;0.37;;;;;;;;;;5073129;28;20209;-82
2022/07/18 05:02:54;;;;;;;0.50;0.50;;;;;;;;;;5075662;28;20291;-82
2022/07/18 05:05:23;;;;;;;5.03;2.90;;;;;;;;;;5091349;28;20200;-82
2022/07/18 05:07:52;;;;;;;5.50;3.73;;;;;;;;;;5081236;28;20231;-82
2022/07/18 05:10:22;;;;;;;9.70;3.83;;;;;;;;;;5075822;28;20223;-82
2022/07/18 05:12:51;;;;;;;7.03;3.90;;;;;;;;;;5093084;28;20289;-82
2022/07/18 05:15:25;;;;;;;6.17;3.60;;;;;;;;;;5097006;28;20204;-81
2022/07/18 05:17:54;;;;;;;1.83;1.20;;;;;;;;;;5075927;28;20223;-81
2022/07/18 05:20:29;;;;;;;0.63;0.63;;;;;;;;;;5081876;28;20203;-81
2022/07/18 05:22:57;;;;;;;2.40;1.27;;;;;;;;;;5078720;28;20217;-81
2022/07/18 05:25:26;;;;;;;2.37;1.90;;;;;;;;;;5078626;28;20195;-82
2022/07/18 05:27:57;;;;;;;6.03;4.23;;;;;;;;;;5096569;28;20199;-82
2022/07/18 05:30:27;;;;;;;7.90;4.37;;;;;;;;;;5075442;28;20226;-82
2022/07/18 05:32:55;;;;;;;6.77;3.90;;;;;;;;;;5089910;28;20204;-82
2022/07/18 05:35:24;;;;;;;4.63;3.10;;;;;;;;;;5076928;28;20223;-82
2022/07/18 05:37:52;;;;;;;7.03;3.63;;;;;;;;;;5090082;28;20206;-82
2022/07/18 05:40:21;;;;;;;6.73;3.30;;;;;;;;;;5095459;28;20291;-81
2022/07/18 05:42:50;;;;;;;7.40;3.97;;;;;;;;;;5075606;28;20213;-82
2022/07/18 05:45:22;;;;;;;7.73;4.20;;;;;;;;;;5077341;28;20265;-81
2022/07/18 05:47:53;;;;;;;5.27;3.33;;;;;;;;;;5078115;28;20229;-80
2022/07/18 05:50:21;;;;;;;3.03;2.73;;;;;;;;;;5074890;28;20231;-82
2022/07/18 05:52:50;;;;;;;4.60;3.13;;;;;;;;;;5078234;28;20213;-82
2022/07/18 05:55:18;;;;;;;4.13;3.70;;;;;;;;;;5075859;28;20197;-82
2022/07/18 05:57:47;;;;;;;6.80;3.80;;;;;;;;;;5078251;28;20198;-82
2022/07/18 06:00:20;;;;;;;4.70;2.53;;;;;;;;;;5078542;28;20220;-82
2022/07/18 06:02:48;;;;;;;5.20;3.67;;;;;;;;;;5096460;28;20211;-82
2022/07/18 06:05:19;;;;;;;4.97;3.63;;;;;;;;;;5077439;28;20225;-82
2022/07/18 06:07:52;;;;;;;5.77;3.10;;;;;;;;;;5078339;28;20199;-82
2022/07/18 06:10:21;;;;;;;4.33;2.63;;;;;;;;;;5078066;28;20194;-81
2022/07/18 06:12:49;;;;;;;3.80;2.87;;;;;;;;;;5094916;28;20195;-82
2022/07/18 06:15:18;;;;;;;4.17;3.13;;;;;;;;;;5078222;28;20198;-82
2022/07/18 06:17:47;;;;;;;6.23;2.90;;;;;;;;;;5078123;28;20196;-82
2022/07/18 06:20:16;;;;;;;5.03;3.20;;;;;;;;;;5078009;28;20197;-82
2022/07/18 06:22:45;;;;;;;5.50;3.63;;;;;;;;;;5077763;28;20208;-82
2022/07/18 06:25:14;;;;;;;6.50;3.13;;;;;;;;;;5076919;28;20201;-82
2022/07/18 06:27:43;;;;;;;3.47;2.50;;;;;;;;;;5078020;28;20198;-82
2022/07/18 06:30:11;;;;;;;5.90;4.37;;;;;;;;;;5089558;28;20215;-82
2022/07/18 06:32:40;;;;;;;5.13;4.10;;;;;;;;;;5067054;28;20337;-82
2022/07/18 06:35:09;;;;;;;5.67;3.27;;;;;;;;;;5074566;28;20222;-82
2022/07/18 06:37:37;;;;;;;4.47;2.87;;;;;;;;;;5075477;28;20229;-82
2022/07/18 06:40:08;;;;;;;4.33;2.83;;;;;;;;;;5074341;28;20256;-83
2022/07/18 06:42:37;;;;;;;5.87;2.87;;;;;;;;;;5084412;28;20234;-82
2022/07/18 06:45:06;;;;;;;9.13;4.47;;;;;;;;;;5077486;28;20266;-82
2022/07/18 06:47:41;;;;;;;7.47;3.93;;;;;;;;;;5084609;28;20238;-82
2022/07/18 06:50:09;;;;;;;5.67;2.40;;;;;;;;;;5076636;28;20203;-82
2022/07/18 06:52:39;;;;;;;4.87;3.87;;;;;;;;;;5077412;28;20282;-82
2022/07/18 06:55:09;;;;;;;4.47;3.27;;;;;;;;;;5077683;28;20198;-82
2022/07/18 06:57:38;;;;;;;6.33;1.73;;;;;;;;;;5077056;28;20215;-82
2022/07/18 07:00:08;;;;;;;6.23;2.00;;;;;;;;;;5082866;28;20204;-82
2022/07/18 07:02:36;;;;;;;5.07;3.30;;;;;;;;;;5076960;28;20203;-82
2022/07/18 07:05:05;;;;;;;2.20;1.90;;;;;;;;;;5094904;28;20212;-82
2022/07/18 07:07:33;;;;;;;1.30;1.20;;;;;;;;;;5094023;28;20253;-82
2022/07/18 07:10:01;;;;;;;4.60;2.20;;;;;;;;;;5065114;28;20299;-83
2022/07/18 07:12:31;;;;;;;2.60;1.10;;;;;;;;;;5075655;28;20204;-81
2022/07/18 07:15:00;;;;;;;4.57;2.77;;;;;;;;;;5077116;28;20196;-82
2022/07/18 07:17:29;;;;;;;4.53;1.80;;;;;;;;;;5073871;28;20264;-82
2022/07/18 07:19:58;;;;;;;1.87;1.63;;;;;;;;;;5080513;28;20205;-82
2022/07/18 07:22:26;;;;;;;3.87;1.93;;;;;;;;;;5077072;28;20263;-82
2022/07/18 07:24:55;;;;;;;5.77;3.07;;;;;;;;;;5076477;28;20255;-82
2022/07/18 07:27:23;;;;;;;5.23;2.03;;;;;;;;;;5084804;28;20208;-82
2022/07/18 07:29:53;;;;;;;1.10;1.03;;;;;;;;;;5091460;28;20251;-82
2022/07/18 07:32:21;;;;;;;5.47;3.60;;;;;;;;;;5073476;28;20213;-82
2022/07/18 07:34:50;;;;;;;2.97;1.80;;;;;;;;;;5085546;28;20287;-81
2022/07/18 07:37:18;;;;;;;0.30;0.30;;;;;;;;;;5088823;28;20215;-81
2022/07/18 07:39:49;;;;;;;3.87;2.57;;;;;;;;;;5077184;28;20210;-81
2022/07/18 07:42:18;;;;;;;3.50;2.90;;;;;;;;;;5087712;28;20208;-81
2022/07/18 07:44:46;;;;;;;4.07;1.63;;;;;;;;;;5073693;28;20219;-83
2022/07/18 07:47:17;;;;;;;0.83;0.77;;;;;;;;;;5088029;28;20251;-82
2022/07/18 07:49:46;;;;;;;7.93;1.70;;;;;;;;;;5079075;28;20226;-82
2022/07/18 07:52:16;;;;;;;6.07;3.53;;;;;;;;;;5085493;28;20245;-82
2022/07/18 07:54:45;;;;;;;5.20;2.30;;;;;;;;;;5078230;28;20186;-82
2022/07/18 07:57:14;;;;;;;8.90;3.23;;;;;;;;;;5089856;28;20203;-83
2022/07/18 07:59:42;;;;;;;4.00;2.23;;;;;;;;;;5083265;28;20200;-82
2022/07/18 08:02:11;;;;;;;1.40;1.30;;;;;;;;;;5066748;28;20206;-81
2022/07/18 08:04:41;;;;;;;6.20;3.03;;;;;;;;;;5071965;28;20240;-81
2022/07/18 08:07:10;;;;;;;4.27;3.00;;;;;;;;;;5088432;28;20203;-80
2022/07/18 08:09:39;;;;;;;1.87;1.60;;;;;;;;;;5091049;28;20209;-83
2022/07/18 08:12:08;;;;;;;4.77;2.90;;;;;;;;;;5083094;28;20288;-82
2022/07/18 08:14:39;;;;;;;4.27;2.13;;;;;;;;;;5087231;28;20198;-83
2022/07/18 08:17:08;;;;;;;3.97;1.77;;;;;;;;;;5073582;28;20205;-83
2022/07/18 08:19:37;;;;;;;1.90;1.80;;;;;;;;;;5087004;28;20273;-83
2022/07/18 08:22:07;;;;;;;3.40;2.23;;;;;;;;;;5078814;28;20274;-82
2022/07/18 08:24:37;;;;;;;4.77;2.70;;;;;;;;;;5079554;28;20275;-83
2022/07/18 08:27:06;;;;;;;5.53;2.03;;;;;;;;;;5075407;28;20196;-82
2022/07/18 08:29:34;;;;;;;0.80;0.80;;;;;;;;;;5089324;28;20218;-83
2022/07/18 08:32:23;;;;;;;1.97;1.77;;;;;;;;;;5092968;28;20220;-82
2022/07/18 08:34:52;;;;;;;9.43;0.90;;;;;;;;;;5082693;28;20223;-82
2022/07/18 08:37:22;;;;;;;5.53;2.03;;;;;;;;;;5087536;28;20198;-83
2022/07/18 08:39:54;;;;;;;6.13;3.57;;;;;;;;;;5090279;28;20199;-83
2022/07/18 08:42:24;;;;;;;4.67;2.20;;;;;;;;;;5088364;28;20244;-84
2022/07/18 08:44:54;;;;;;;2.03;1.77;;;;;;;;;;5088969;28;20235;-84
2022/07/18 08:47:23;;;;;;;1.83;1.67;;;;;;;;;;5062515;28;20238;-84
2022/07/18 08:50:02;;;;;;;2.83;2.43;;;;;;;;;;5071511;28;20213;-84
2022/07/18 08:52:46;;;;;;;3.73;2.37;;;;;;;;;;5055315;28;20198;-82
2022/07/18 08:55:22;;;;;;;1.97;1.80;;;;;;;;;;5076757;28;20205;-84
2022/07/18 08:57:53;;;;;;;3.83;2.33;;;;;;;;;;5076096;28;20227;-83
2022/07/18 09:00:22;;;;;;;2.50;0.97;;;;;;;;;;5069014;28;20210;-83
2022/07/18 09:02:58;;;;;;;0.60;0.60;;;;;;;;;;5075560;28;20206;-83
2022/07/18 09:05:26;;;;;;;2.53;1.27;;;;;;;;;;5053896;28;20305;-83
2022/07/18 09:08:16;;;;;;;3.77;2.60;;;;;;;;;;5057250;28;20203;-84
2022/07/18 09:10:52;;;;;;;6.63;3.43;;;;;;;;;;5067846;28;20195;-84
2022/07/18 09:13:23;;;;;;;7.93;3.80;;;;;;;;;;5083110;28;20199;-83
2022/07/18 09:16:03;;;;;;;5.37;3.40;;;;;;;;;;5073506;28;20192;-83
2022/07/18 09:18:32;;;;;;;0.97;0.97;;;;;;;;;;5055505;28;20293;-82
2022/07/18 09:21:06;;;;;;;2.43;1.60;;;;;;;;;;5068050;28;20197;-83
2022/07/18 09:23:37;;;;;;;7.07;3.33;;;;;;;;;;5053945;28;20207;-83
2022/07/18 09:26:06;;;;;;;1.53;1.20;;;;;;;;;;5076623;28;20211;-83
2022/07/18 09:28:52;;;;;;;5.83;2.87;;;;;;;;;;5058117;28;20227;-82
2022/07/18 09:31:49;;;;;;;3.50;1.80;;;;;;;;;;5075245;28;20196;-81
2022/07/18 09:34:33;;;;;;;2.53;1.70;;;;;;;;;;5056611;28;20228;-82
2022/07/18 09:37:01;;;;;;;7.70;3.33;;;;;;;;;;5055884;28;20227;-82
2022/07/18 09:39:31;;;;;;;3.40;2.30;;;;;;;;;;5062522;28;20213;-82
2022/07/18 09:42:13;;;;;;;5.30;2.83;;;;;;;;;;5060406;28;20198;-82
2022/07/18 09:44:58;;;;;;;6.43;2.57;;;;;;;;;;5055849;28;20532;-82
2022/07/18 09:47:27;;;;;;;5.97;1.73;;;;;;;;;;5069458;28;20241;-81
2022/07/18 09:49:56;;;;;;;4.50;2.90;;;;;;;;;;5073962;28;20197;-82
2022/07/18 09:52:24;;;;;;;0.97;0.87;;;;;;;;;;5074012;28;20202;-80
2022/07/18 09:55:04;;;;;;;2.93;1.73;;;;;;;;;;5071303;28;20202;-82
2022/07/18 09:57:33;;;;;;;0.73;0.73;;;;;;;;;;5069844;28;20220;-82
2022/07/18 10:00:01;;;;;;;0.77;0.77;;;;;;;;;;5076354;28;20202;-82
2022/07/18 10:02:30;;;;;;;2.33;1.07;;;;;;;;;;5073552;28;20206;-83
2022/07/18 10:04:59;;;;;;;1.80;1.60;;;;;;;;;;5093462;28;20231;-84
2022/07/18 10:07:37;;;;;;;6.33;1.27;;;;;;;;;;5063096;28;20189;-83
2022/07/18 10:10:09;;;;;;;0.20;0.20;;;;;;;;;;5070509;28;20216;-83
2022/07/18 10:12:42;;;;;;;0.27;0.27;;;;;;;;;;5076365;28;20235;-84
2022/07/18 10:15:11;;;;;;;2.10;2.00;;;;;;;;;;5073049;28;20293;-82
2022/07/18 10:17:43;;;;;;;3.90;1.50;;;;;;;;;;5069578;28;20205;-83
2022/07/18 10:20:12;;;;;;;5.13;2.47;;;;;;;;;;5071015;28;20217;-82
2022/07/18 10:22:42;;;;;;;4.47;1.83;;;;;;;;;;5089515;28;20195;-82
2022/07/18 10:25:13;;;;;;;3.27;2.00;;;;;;;;;;5078805;28;20228;-83
2022/07/18 10:27:51;;;;;;;0.90;0.57;;;;;;;;;;5096043;28;20225;-83
2022/07/18 10:30:31;;;;;;;3.33;1.70;;;;;;;;;;5074141;28;20206;-82
2022/07/18 10:33:00;;;;;;;2.00;1.47;;;;;;;;;;5070048;28;20205;-82
2022/07/18 10:35:47;;;;;;;3.00;1.77;;;;;;;;;;5069493;28;20226;-82
2022/07/18 10:38:23;;;;;;;0.63;0.63;;;;;;;;;;5071561;28;20271;-81
2022/07/18 10:41:04;;;;;;;1.50;1.20;;;;;;;;;;5073014;28;20216;-81
2022/07/18 10:43:42;;;;;;;11.23;0.50;;;;;;;;;;5087695;28;20206;-82
2022/07/18 10:46:13;;;;;;;4.37;2.13;;;;;;;;;;5072109;28;20240;-81
2022/07/18 10:48:57;;;;;;;0.97;0.97;;;;;;;;;;5094359;28;20207;-83
2022/07/18 10:51:32;;;;;;;1.13;1.03;;;;;;;;;;5073253;28;20201;-84
2022/07/18 10:54:14;;;;;;;4.27;2.37;;;;;;;;;;5068341;28;20205;-85
2022/07/18 10:57:08;;;;;;;2.13;1.47;;;;;;;;;;5095269;28;20197;-84
2022/07/18 11:00:01;;;;;;;1.80;1.60;;;;;;;;;;5089617;28;20295;-84
2022/07/18 11:02:33;;;;;;;0.20;0.20;;;;;;;;;;5073537;28;20208;-84
2022/07/18 11:05:02;;;;;;;6.07;1.80;;;;;;;;;;5075797;28;20260;-83
2022/07/18 11:07:31;;;;;;;0.90;0.90;;;;;;;;;;5077613;28;20211;-84
2022/07/18 11:09:59;;;;;;;6.50;1.83;;;;;;;;;;5092974;28;20243;-84
2022/07/18 11:12:30;;;;;;;0.20;0.20;;;;;;;;;;5080150;28;20211;-82
2022/07/18 11:15:16;;;;;;;3.00;1.93;;;;;;;;;;5075797;28;20201;-83
2022/07/18 11:18:04;;;;;;;2.50;2.20;;;;;;;;;;5070010;28;20200;-84
2022/07/18 11:20:37;;;;;;;0.30;0.30;;;;;;;;;;5059378;28;20202;-83
2022/07/18 11:23:06;;;;;;;2.10;1.30;;;;;;;;;;5068677;28;20267;-83
2022/07/18 11:25:35;;;;;;;1.90;1.23;;;;;;;;;;5066822;28;20205;-84
2022/07/18 11:28:25;;;;;;;1.87;1.77;;;;;;;;;;5069858;28;20213;-86
2022/07/18 11:31:01;;;;;;;0.63;0.63;;;;;;;;;;5080976;28;20221;-82
2022/07/18 11:33:30;;;;;;;0.50;0.50;;;;;;;;;;5078705;28;20317;-83
2022/07/18 11:36:05;;;;;;;8.43;2.33;;;;;;;;;;5062749;28;20221;-84
2022/07/18 11:38:35;;;;;;;0.60;0.60;;;;;;;;;;5068942;28;20256;-83
2022/07/18 11:41:04;;;;;;;0.27;0.27;;;;;;;;;;5071880;28;20248;-85
2022/07/18 11:43:33;;;;;;;0.60;0.60;;;;;;;;;;5080763;28;20196;-84
2022/07/18 11:46:06;;;;;;;0.20;0.20;;;;;;;;;;5074055;28;20210;-85
2022/07/18 11:48:43;;;;;;;1.80;1.80;;;;;;;;;;5077209;28;20228;-85
2022/07/18 11:51:14;;;;;;;2.93;1.33;;;;;;;;;;5077668;28;20224;-85
2022/07/18 11:53:45;;;;;;;1.47;1.37;;;;;;;;;;5076892;28;20197;-85
2022/07/18 11:56:14;;;;;;;2.00;1.70;;;;;;;;;;5066966;28;20211;-85
2022/07/18 11:58:45;;;;;;;1.70;1.27;;;;;;;;;;5090351;28;20193;-83
2022/07/18 12:01:14;;;;;;;0.60;0.60;;;;;;;;;;5095310;28;20270;-82
2022/07/18 12:03:44;;;;;;;3.30;1.33;;;;;;;;;;5086437;28;20190;-83
2022/07/18 12:06:13;;;;;;;3.23;2.20;;;;;;;;;;5066535;28;20217;-83
2022/07/18 12:08:43;;;;;;;1.40;1.30;;;;;;;;;;5075680;28;20201;-84
2022/07/18 12:11:14;;;;;;;0.87;0.87;;;;;;;;;;5082629;28;20220;-85
2022/07/18 12:13:55;;;;;;;3.80;2.57;;;;;;;;;;5090950;28;20204;-85
2022/07/18 12:16:25;;;;;;;1.10;1.03;;;;;;;;;;5076366;28;20406;-84
2022/07/18 12:18:54;;;;;;;0.77;0.60;;;;;;;;;;5056756;28;20198;-84
2022/07/18 12:21:23;;;;;;;0.20;0.20;;;;;;;;;;5094900;28;20192;-84
2022/07/18 12:23:52;;;;;;;0.30;0.30;;;;;;;;;;5080326;28;20229;-84
2022/07/18 12:26:28;;;;;;;3.77;1.90;;;;;;;;;;5077632;28;20266;-84
2022/07/18 12:29:16;;;;;;;2.43;1.63;;;;;;;;;;5076992;28;20200;-84
2022/07/18 12:31:45;;;;;;;1.07;0.87;;;;;;;;;;5066776;28;20246;-84
2022/07/18 12:34:15;;;;;;;0.40;0.40;;;;;;;;;;5079911;28;20221;-84
2022/07/18 12:36:55;;;;;;;0.40;0.40;;;;;;;;;;5076879;28;20221;-84
2022/07/18 12:39:31;;;;;;;0.97;0.97;;;;;;;;;;5074136;28;20318;-84
2022/07/18 12:42:01;;;;;;;3.57;2.00;;;;;;;;;;5084659;28;20292;-84
2022/07/18 12:44:31;;;;;;;0.30;0.30;;;;;;;;;;5070715;28;20284;-84
2022/07/18 12:46:59;;;;;;;1.03;0.87;;;;;;;;;;5076215;28;20217;-84
2022/07/18 12:49:28;;;;;;;3.70;2.17;;;;;;;;;;5073818;28;20190;-84
2022/07/18 12:51:57;;;;;;;1.27;1.17;;;;;;;;;;5074857;28;20286;-83
2022/07/18 12:54:25;;;;;;;1.40;1.27;;;;;;;;;;5074111;28;20201;-83
2022/07/18 12:56:54;;;;;;;6.17;2.10;;;;;;;;;;5078375;28;20307;-82
2022/07/18 12:59:22;;;;;;;1.77;0.37;;;;;;;;;;5076684;28;20200;-83
2022/07/18 13:01:59;;;;;;;1.70;1.27;;;;;;;;;;5075131;28;20250;-84
2022/07/18 13:04:27;;;;;;;3.10;2.20;;;;;;;;;;5095273;28;20208;-84
2022/07/18 13:06:56;;;;;;;2.33;0.97;;;;;;;;;;5074357;28;20213;-83
2022/07/18 13:09:25;;;;;;;0.87;0.77;;;;;;;;;;5079684;28;20224;-82
2022/07/18 13:11:53;;;;;;;3.30;2.57;;;;;;;;;;5072599;28;20196;-82
2022/07/18 13:14:22;;;;;;;2.30;2.10;;;;;;;;;;5071349;28;20229;-83
2022/07/18 13:16:52;;;;;;;1.17;1.08;;;;;;;;;;5073311;28;20189;-83
2022/07/18 13:19:26;;;;;;;3.92;2.60;;;;;;;;;;5071905;28;20200;-82
2022/07/18 13:21:55;;;;;;;1.55;1.17;;;;;;;;;;5071498;28;20312;-83
2022/07/18 13:24:25;;;;;;;2.78;1.75;;;;;;;;;;5077141;28;20205;-86
2022/07/18 13:27:03;;;;;;;1.77;1.52;;;;;;;;;;5072861;28;20216;-85
2022/07/18 13:29:32;;;;;;;0.65;0.65;;;;;;;;;;5078356;28;20197;-83
2022/07/18 13:32:02;;;;;;;1.08;1.02;;;;;;;;;;5071593;28;20203;-84
2022/07/18 13:34:33;;;;;;;1.77;1.45;;;;;;;;;;5072409;28;20229;-84
2022/07/18 13:37:08;;;;;;;2.03;1.05;;;;;;;;;;5072063;28;20209;-82
2022/07/18 13:39:36;;;;;;;1.67;1.17;;;;;;;;;;5076935;28;20288;-83
2022/07/18 13:42:05;;;;;;;0.98;0.95;;;;;;;;;;5080252;28;20247;-82
2022/07/18 13:44:33;;;;;;;0.60;0.60;;;;;;;;;;5068745;28;20201;-84
2022/07/18 13:47:02;;;;;;;3.35;1.67;;;;;;;;;;5074404;28;20225;-83
2022/07/18 13:49:32;;;;;;;0.80;0.80;;;;;;;;;;5081117;28;20192;-83
2022/07/18 13:52:01;;;;;;;1.40;1.30;;;;;;;;;;5072360;28;20202;-83
2022/07/18 13:54:37;;;;;;;1.92;1.73;;;;;;;;;;5077958;28;20201;-84
2022/07/18 13:57:06;;;;;;;1.85;1.35;;;;;;;;;;5074004;28;20199;-84
2022/07/18 13:59:34;;;;;;;2.40;2.17;;;;;;;;;;5088725;28;20200;-84
2022/07/18 14:02:03;;;;;;;0.65;0.65;;;;;;;;;;5074719;28;20197;-84
2022/07/18 14:04:33;;;;;;;1.50;1.40;;;;;;;;;;5077346;28;20201;-84
2022/07/18 14:07:21;;;;;;;0.77;0.77;;;;;;;;;;5093480;28;20208;-86
2022/07/18 14:09:50;;;;;;;1.73;1.60;;;;;;;;;;5073256;28;20197;-82
2022/07/18 14:12:22;;;;;;;8.02;3.00;;;;;;;;;;5073696;28;20236;-83
2022/07/18 14:14:51;;;;;;;0.70;0.70;;;;;;;;;;5067859;28;20220;-84
2022/07/18 14:17:19;;;;;;;2.90;1.60;;;;;;;;;;5082670;28;20192;-84
2022/07/18 14:19:49;;;;;;;0.98;0.90;;;;;;;;;;5073171;28;20206;-85
2022/07/18 14:22:18;;;;;;;1.70;1.55;;;;;;;;;;5097958;28;20293;-84
2022/07/18 14:24:47;;;;;;;0.30;0.30;;;;;;;;;;5072636;28;20197;-82
2022/07/18 14:27:15;;;;;;;3.38;1.42;;;;;;;;;;5092909;28;20205;-84
2022/07/18 14:29:51;;;;;;;6.32;2.55;;;;;;;;;;5076498;28;20264;-84
2022/07/18 14:32:20;;;;;;;1.58;1.48;;;;;;;;;;5088364;28;20230;-83
2022/07/18 14:34:50;;;;;;;3.67;1.33;;;;;;;;;;5071597;28;20220;-82
2022/07/18 14:37:18;;;;;;;3.00;1.00;;;;;;;;;;5097535;28;20247;-82
2022/07/18 14:39:47;;;;;;;2.00;1.05;;;;;;;;;;5079827;28;20193;-81
2022/07/18 14:42:24;;;;;;;4.57;2.40;;;;;;;;;;5073294;28;20212;-82
2022/07/18 14:44:53;;;;;;;0.95;0.95;;;;;;;;;;5068878;28;20197;-82
2022/07/18 14:47:22;;;;;;;2.08;1.75;;;;;;;;;;5071170;28;20236;-81
2022/07/18 14:49:52;;;;;;;0.88;0.88;;;;;;;;;;5081212;28;20198;-82
2022/07/18 14:52:21;;;;;;;0.70;0.70;;;;;;;;;;5094449;28;20296;-83
2022/07/18 14:54:49;;;;;;;0.82;0.82;;;;;;;;;;5070230;28;20209;-82
2022/07/18 14:57:18;;;;;;;1.20;0.90;;;;;;;;;;5076295;28;20225;-82
2022/07/18 14:59:47;;;;;;;2.90;1.35;;;;;;;;;;5072748;28;20197;-82
2022/07/18 15:02:16;;;;;;;3.13;2.63;;;;;;;;;;5086507;28;20193;-82
2022/07/18 15:04:47;;;;;;;3.50;1.00;;;;;;;;;;5076133;28;20211;-81